sensor_id;sensor_type;location;lat;lon;timestamp;temperature;humidity
65637;DHT22;52327;42.622;23.316;2022-12-18T00:01:22;6.84;91.22
65637;DHT22;52327;42.622;23.316;2022-12-18T00:03:48;6.75;90.84
65637;DHT22;52327;42.622;23.316;2022-12-18T00:06:14;6.75;91.39
65637;DHT22;52327;42.622;23.316;2022-12-18T00:08:43;6.83;90.97
65637;DHT22;52327;42.622;23.316;2022-12-18T00:11:15;6.80;90.33
65637;DHT22;52327;42.622;23.316;2022-12-18T00:13:41;6.87;90.55
65637;DHT22;52327;42.622;23.316;2022-12-18T00:16:11;6.84;90.48
65637;DHT22;52327;42.622;23.316;2022-12-18T00:18:37;6.73;91.67
65637;DHT22;52327;42.622;23.316;2022-12-18T00:21:05;6.45;91.42
65637;DHT22;52327;42.622;23.316;2022-12-18T00:23:31;6.48;92.31
65637;DHT22;52327;42.622;23.316;2022-12-18T00:26:02;6.63;90.34
65637;DHT22;52327;42.622;23.316;2022-12-18T00:28:28;6.82;91.64
65637;DHT22;52327;42.622;23.316;2022-12-18T00:31:04;6.97;91.03
65637;DHT22;52327;42.622;23.316;2022-12-18T00:33:29;6.93;91.21
65637;DHT22;52327;42.622;23.316;2022-12-18T00:36:09;7.03;90.31
65637;DHT22;52327;42.622;23.316;2022-12-18T00:38:35;6.97;89.99
65637;DHT22;52327;42.622;23.316;2022-12-18T00:41:02;6.87;90.41
65637;DHT22;52327;42.622;23.316;2022-12-18T00:43:28;6.97;90.99
65637;DHT22;52327;42.622;23.316;2022-12-18T00:45:53;7.01;90.44
65637;DHT22;52327;42.622;23.316;2022-12-18T00:48:19;6.97;89.28
65637;DHT22;52327;42.622;23.316;2022-12-18T00:50:44;6.90;89.47
65637;DHT22;52327;42.622;23.316;2022-12-18T00:53:10;6.83;89.70
65637;DHT22;52327;42.622;23.316;2022-12-18T00:55:38;6.65;90.51
65637;DHT22;52327;42.622;23.316;2022-12-18T00:58:04;6.55;90.01
65637;DHT22;52327;42.622;23.316;2022-12-18T01:00:29;6.48;90.06
65637;DHT22;52327;42.622;23.316;2022-12-18T01:02:55;6.45;90.54
65637;DHT22;52327;42.622;23.316;2022-12-18T01:05:20;6.65;90.51
65637;DHT22;52327;42.622;23.316;2022-12-18T01:07:46;6.73;89.93
65637;DHT22;52327;42.622;23.316;2022-12-18T01:10:12;6.93;90.06
65637;DHT22;52327;42.622;23.316;2022-12-18T01:12:38;6.76;88.48
65637;DHT22;52327;42.622;23.316;2022-12-18T01:15:06;6.90;89.88
65637;DHT22;52327;42.622;23.316;2022-12-18T01:17:32;7.00;90.50
65637;DHT22;52327;42.622;23.316;2022-12-18T01:19:57;6.90;89.78
65637;DHT22;52327;42.622;23.316;2022-12-18T01:22:23;6.75;88.37
65637;DHT22;52327;42.622;23.316;2022-12-18T01:24:48;6.55;89.57
65637;DHT22;52327;42.622;23.316;2022-12-18T01:27:14;6.57;89.82
65637;DHT22;52327;42.622;23.316;2022-12-18T01:29:39;6.55;88.89
65637;DHT22;52327;42.622;23.316;2022-12-18T01:32:04;6.43;89.45
65637;DHT22;52327;42.622;23.316;2022-12-18T01:34:30;6.43;87.78
65637;DHT22;52327;42.622;23.316;2022-12-18T01:36:56;6.61;89.76
65637;DHT22;52327;42.622;23.316;2022-12-18T01:39:21;6.38;89.23
65637;DHT22;52327;42.622;23.316;2022-12-18T01:41:47;6.18;89.78
65637;DHT22;52327;42.622;23.316;2022-12-18T01:44:57;6.07;90.46
65637;DHT22;52327;42.622;23.316;2022-12-18T01:47:53;6.14;89.56
65637;DHT22;52327;42.622;23.316;2022-12-18T01:50:31;5.88;90.30
65637;DHT22;52327;42.622;23.316;2022-12-18T01:53:07;5.83;90.40
65637;DHT22;52327;42.622;23.316;2022-12-18T01:55:38;5.97;91.26
65637;DHT22;52327;42.622;23.316;2022-12-18T01:58:06;5.71;90.58
65637;DHT22;52327;42.622;23.316;2022-12-18T02:00:31;5.74;91.34
65637;DHT22;52327;42.622;23.316;2022-12-18T02:02:57;5.88;91.91
65637;DHT22;52327;42.622;23.316;2022-12-18T02:08:20;5.74;91.53
65637;DHT22;52327;42.622;23.316;2022-12-18T02:16:32;5.71;91.36
65637;DHT22;52327;42.622;23.316;2022-12-18T02:18:56;5.86;91.68
65637;DHT22;52327;42.622;23.316;2022-12-18T02:27:07;5.84;89.73
65637;DHT22;52327;42.622;23.316;2022-12-18T02:29:54;5.93;89.07
65637;DHT22;52327;42.622;23.316;2022-12-18T02:32:27;5.83;90.24
65637;DHT22;52327;42.622;23.316;2022-12-18T02:34:54;5.90;90.80
65637;DHT22;52327;42.622;23.316;2022-12-18T02:37:21;5.78;90.21
65637;DHT22;52327;42.622;23.316;2022-12-18T02:39:48;5.80;89.87
65637;DHT22;52327;42.622;23.316;2022-12-18T02:42:14;5.59;90.20
65637;DHT22;52327;42.622;23.316;2022-12-18T02:44:46;5.57;91.39
65637;DHT22;52327;42.622;23.316;2022-12-18T02:47:13;5.64;91.70
65637;DHT22;52327;42.622;23.316;2022-12-18T02:58:26;5.38;90.31
65637;DHT22;52327;42.622;23.316;2022-12-18T03:01:01;5.09;90.42
65637;DHT22;52327;42.622;23.316;2022-12-18T03:03:38;5.04;90.23
65637;DHT22;52327;42.622;23.316;2022-12-18T03:06:12;5.16;91.22
65637;DHT22;52327;42.622;23.316;2022-12-18T03:08:43;5.13;91.07
65637;DHT22;52327;42.622;23.316;2022-12-18T03:11:11;5.26;91.96
65637;DHT22;52327;42.622;23.316;2022-12-18T03:13:49;5.46;92.36
65637;DHT22;52327;42.622;23.316;2022-12-18T03:16:26;5.54;91.96
65637;DHT22;52327;42.622;23.316;2022-12-18T03:18:55;5.42;90.97
65637;DHT22;52327;42.622;23.316;2022-12-18T03:21:27;5.36;91.03
65637;DHT22;52327;42.622;23.316;2022-12-18T03:23:54;5.42;91.10
65637;DHT22;52327;42.622;23.316;2022-12-18T03:26:24;5.15;89.74
65637;DHT22;52327;42.622;23.316;2022-12-18T03:28:53;5.11;91.58
65637;DHT22;52327;42.622;23.316;2022-12-18T03:31:23;4.96;91.39
65637;DHT22;52327;42.622;23.316;2022-12-18T03:33:58;5.12;91.79
65637;DHT22;52327;42.622;23.316;2022-12-18T03:36:25;5.38;90.46
65637;DHT22;52327;42.622;23.316;2022-12-18T03:38:51;5.25;90.76
65637;DHT22;52327;42.622;23.316;2022-12-18T03:41:33;5.25;88.21
65637;DHT22;52327;42.622;23.316;2022-12-18T03:46:41;5.20;88.49
65637;DHT22;52327;42.622;23.316;2022-12-18T03:49:55;5.22;88.71
65637;DHT22;52327;42.622;23.316;2022-12-18T03:52:14;5.12;87.75
65637;DHT22;52327;42.622;23.316;2022-12-18T03:54:41;5.20;89.02
65637;DHT22;52327;42.622;23.316;2022-12-18T03:57:19;5.16;89.27
65637;DHT22;52327;42.622;23.316;2022-12-18T03:59:47;5.06;89.18
65637;DHT22;52327;42.622;23.316;2022-12-18T04:02:16;4.96;89.29
65637;DHT22;52327;42.622;23.316;2022-12-18T04:04:43;4.85;88.82
65637;DHT22;52327;42.622;23.316;2022-12-18T04:07:10;4.87;88.06
65637;DHT22;52327;42.622;23.316;2022-12-18T04:09:36;4.75;88.57
65637;DHT22;52327;42.622;23.316;2022-12-18T04:12:04;4.74;88.58
65637;DHT22;52327;42.622;23.316;2022-12-18T04:14:29;4.72;89.12
65637;DHT22;52327;42.622;23.316;2022-12-18T04:16:54;4.57;88.61
65637;DHT22;52327;42.622;23.316;2022-12-18T04:19:20;4.53;89.32
65637;DHT22;52327;42.622;23.316;2022-12-18T04:21:45;4.48;89.34
65637;DHT22;52327;42.622;23.316;2022-12-18T04:24:11;4.44;89.22
65637;DHT22;52327;42.622;23.316;2022-12-18T04:26:36;4.57;89.80
65637;DHT22;52327;42.622;23.316;2022-12-18T04:29:02;4.48;89.38
65637;DHT22;52327;42.622;23.316;2022-12-18T04:31:27;4.47;88.82
65637;DHT22;52327;42.622;23.316;2022-12-18T04:33:53;4.33;89.27
65637;DHT22;52327;42.622;23.316;2022-12-18T04:36:18;4.32;88.54
65637;DHT22;52327;42.622;23.316;2022-12-18T04:38:43;4.33;88.11
65637;DHT22;52327;42.622;23.316;2022-12-18T04:41:09;4.38;88.61
65637;DHT22;52327;42.622;23.316;2022-12-18T04:43:34;4.24;89.12
65637;DHT22;52327;42.622;23.316;2022-12-18T04:46:07;4.17;87.75
65637;DHT22;52327;42.622;23.316;2022-12-18T04:48:34;4.11;88.43
65637;DHT22;52327;42.622;23.316;2022-12-18T04:50:59;4.10;88.54
65637;DHT22;52327;42.622;23.316;2022-12-18T04:53:25;4.21;88.98
65637;DHT22;52327;42.622;23.316;2022-12-18T04:55:50;4.17;88.48
65637;DHT22;52327;42.622;23.316;2022-12-18T04:58:16;4.05;87.95
65637;DHT22;52327;42.622;23.316;2022-12-18T05:00:41;3.97;88.61
65637;DHT22;52327;42.622;23.316;2022-12-18T05:03:07;4.00;88.19
65637;DHT22;52327;42.622;23.316;2022-12-18T05:05:35;3.87;87.63
65637;DHT22;52327;42.622;23.316;2022-12-18T05:08:00;3.97;88.93
65637;DHT22;52327;42.622;23.316;2022-12-18T05:10:26;4.03;88.62
65637;DHT22;52327;42.622;23.316;2022-12-18T05:12:51;4.05;88.84
65637;DHT22;52327;42.622;23.316;2022-12-18T05:15:30;3.92;88.18
65637;DHT22;52327;42.622;23.316;2022-12-18T05:17:57;3.93;88.15
65637;DHT22;52327;42.622;23.316;2022-12-18T05:20:23;3.89;87.92
65637;DHT22;52327;42.622;23.316;2022-12-18T05:22:49;4.03;88.48
65637;DHT22;52327;42.622;23.316;2022-12-18T05:25:14;3.99;87.35
65637;DHT22;52327;42.622;23.316;2022-12-18T05:27:40;4.10;88.53
65637;DHT22;52327;42.622;23.316;2022-12-18T05:30:06;4.34;88.78
65637;DHT22;52327;42.622;23.316;2022-12-18T05:32:32;4.18;87.86
65637;DHT22;52327;42.622;23.316;2022-12-18T05:34:57;4.27;86.44
65637;DHT22;52327;42.622;23.316;2022-12-18T05:37:22;4.36;87.13
65637;DHT22;52327;42.622;23.316;2022-12-18T05:39:48;4.27;86.03
65637;DHT22;52327;42.622;23.316;2022-12-18T05:42:13;4.24;86.62
65637;DHT22;52327;42.622;23.316;2022-12-18T05:44:39;4.10;86.55
65637;DHT22;52327;42.622;23.316;2022-12-18T05:47:04;3.93;86.26
65637;DHT22;52327;42.622;23.316;2022-12-18T05:49:30;4.06;88.05
65637;DHT22;52327;42.622;23.316;2022-12-18T05:51:55;4.14;87.18
65637;DHT22;52327;42.622;23.316;2022-12-18T05:54:21;4.09;86.68
65637;DHT22;52327;42.622;23.316;2022-12-18T05:56:47;3.96;87.35
65637;DHT22;52327;42.622;23.316;2022-12-18T05:59:12;4.09;88.05
65637;DHT22;52327;42.622;23.316;2022-12-18T06:01:37;4.11;88.39
65637;DHT22;52327;42.622;23.316;2022-12-18T06:04:03;4.18;87.49
65637;DHT22;52327;42.622;23.316;2022-12-18T06:06:28;4.21;86.81
65637;DHT22;52327;42.622;23.316;2022-12-18T06:08:55;4.20;85.55
65637;DHT22;52327;42.622;23.316;2022-12-18T06:11:25;3.99;86.80
65637;DHT22;52327;42.622;23.316;2022-12-18T06:13:52;3.92;87.71
65637;DHT22;52327;42.622;23.316;2022-12-18T06:16:18;3.78;87.62
65637;DHT22;52327;42.622;23.316;2022-12-18T06:18:43;3.85;87.88
65637;DHT22;52327;42.622;23.316;2022-12-18T06:21:09;3.86;85.94
65637;DHT22;52327;42.622;23.316;2022-12-18T06:23:35;3.62;87.06
65637;DHT22;52327;42.622;23.316;2022-12-18T06:26:06;3.59;86.87
65637;DHT22;52327;42.622;23.316;2022-12-18T06:28:31;3.65;87.78
65637;DHT22;52327;42.622;23.316;2022-12-18T06:30:57;3.66;86.36
65637;DHT22;52327;42.622;23.316;2022-12-18T06:33:26;3.79;85.67
65637;DHT22;52327;42.622;23.316;2022-12-18T06:35:52;3.73;84.98
65637;DHT22;52327;42.622;23.316;2022-12-18T06:38:17;3.87;85.61
65637;DHT22;52327;42.622;23.316;2022-12-18T06:40:42;3.93;84.54
65637;DHT22;52327;42.622;23.316;2022-12-18T06:43:08;3.92;84.61
65637;DHT22;52327;42.622;23.316;2022-12-18T06:45:33;3.87;84.21
65637;DHT22;52327;42.622;23.316;2022-12-18T06:47:59;3.86;84.04
65637;DHT22;52327;42.622;23.316;2022-12-18T06:50:24;3.75;85.11
65637;DHT22;52327;42.622;23.316;2022-12-18T06:52:50;3.73;85.32
65637;DHT22;52327;42.622;23.316;2022-12-18T06:55:15;3.90;84.70
65637;DHT22;52327;42.622;23.316;2022-12-18T06:57:41;3.90;83.11
65637;DHT22;52327;42.622;23.316;2022-12-18T07:00:07;3.93;85.07
65637;DHT22;52327;42.622;23.316;2022-12-18T07:02:33;4.00;83.25
65637;DHT22;52327;42.622;23.316;2022-12-18T07:04:58;3.99;83.86
65637;DHT22;52327;42.622;23.316;2022-12-18T07:07:24;3.99;83.86
65637;DHT22;52327;42.622;23.316;2022-12-18T07:09:50;3.92;83.56
65637;DHT22;52327;42.622;23.316;2022-12-18T07:12:16;3.95;83.16
65637;DHT22;52327;42.622;23.316;2022-12-18T07:14:42;4.02;81.15
65637;DHT22;52327;42.622;23.316;2022-12-18T07:17:07;3.90;82.79
65637;DHT22;52327;42.622;23.316;2022-12-18T07:19:33;3.85;83.23
65637;DHT22;52327;42.622;23.316;2022-12-18T07:21:58;4.00;82.43
65637;DHT22;52327;42.622;23.316;2022-12-18T07:24:24;4.06;82.50
65637;DHT22;52327;42.622;23.316;2022-12-18T07:26:49;4.05;82.58
65637;DHT22;52327;42.622;23.316;2022-12-18T07:29:15;4.06;81.13
65637;DHT22;52327;42.622;23.316;2022-12-18T07:31:40;3.89;83.01
65637;DHT22;52327;42.622;23.316;2022-12-18T07:34:10;3.87;82.03
65637;DHT22;52327;42.622;23.316;2022-12-18T07:36:36;4.06;81.16
65637;DHT22;52327;42.622;23.316;2022-12-18T07:39:01;4.13;80.06
65637;DHT22;52327;42.622;23.316;2022-12-18T07:41:27;4.18;82.12
65637;DHT22;52327;42.622;23.316;2022-12-18T07:43:52;4.21;82.70
65637;DHT22;52327;42.622;23.316;2022-12-18T07:46:18;4.06;82.46
65637;DHT22;52327;42.622;23.316;2022-12-18T07:48:43;4.03;82.16
65637;DHT22;52327;42.622;23.316;2022-12-18T07:51:09;4.02;80.71
65637;DHT22;52327;42.622;23.316;2022-12-18T07:53:38;4.02;81.93
65637;DHT22;52327;42.622;23.316;2022-12-18T07:56:06;3.82;81.82
65637;DHT22;52327;42.622;23.316;2022-12-18T07:58:32;3.66;82.58
65637;DHT22;52327;42.622;23.316;2022-12-18T08:01:05;3.69;82.62
65637;DHT22;52327;42.622;23.316;2022-12-18T08:03:30;3.82;81.21
65637;DHT22;52327;42.622;23.316;2022-12-18T08:06:04;3.83;81.32
65637;DHT22;52327;42.622;23.316;2022-12-18T08:08:30;3.90;81.25
65637;DHT22;52327;42.622;23.316;2022-12-18T08:10:58;3.93;82.16
65637;DHT22;52327;42.622;23.316;2022-12-18T08:13:24;3.97;81.59
65637;DHT22;52327;42.622;23.316;2022-12-18T08:15:57;4.09;81.46
65637;DHT22;52327;42.622;23.316;2022-12-18T08:18:23;3.89;81.50
65637;DHT22;52327;42.622;23.316;2022-12-18T08:20:48;3.86;84.73
65637;DHT22;52327;42.622;23.316;2022-12-18T08:23:14;3.89;85.21
65637;DHT22;52327;42.622;23.316;2022-12-18T08:25:39;3.89;84.73
65637;DHT22;52327;42.622;23.316;2022-12-18T08:28:04;4.07;83.27
65637;DHT22;52327;42.622;23.316;2022-12-18T08:30:30;4.06;83.40
65637;DHT22;52327;42.622;23.316;2022-12-18T08:32:55;4.03;83.57
65637;DHT22;52327;42.622;23.316;2022-12-18T08:35:21;4.09;82.85
65637;DHT22;52327;42.622;23.316;2022-12-18T08:37:46;4.20;82.13
65637;DHT22;52327;42.622;23.316;2022-12-18T08:40:12;4.37;82.85
65637;DHT22;52327;42.622;23.316;2022-12-18T08:42:38;4.38;82.19
65637;DHT22;52327;42.622;23.316;2022-12-18T08:45:23;4.37;82.40
65637;DHT22;52327;42.622;23.316;2022-12-18T08:47:49;4.23;82.92
65637;DHT22;52327;42.622;23.316;2022-12-18T08:50:15;4.18;82.77
65637;DHT22;52327;42.622;23.316;2022-12-18T08:52:40;4.10;81.74
65637;DHT22;52327;42.622;23.316;2022-12-18T08:55:06;4.29;80.91
65637;DHT22;52327;42.622;23.316;2022-12-18T08:57:32;4.26;81.76
65637;DHT22;52327;42.622;23.316;2022-12-18T08:59:57;4.13;82.78
65637;DHT22;52327;42.622;23.316;2022-12-18T09:02:23;4.36;83.10
65637;DHT22;52327;42.622;23.316;2022-12-18T09:04:48;4.47;81.73
65637;DHT22;52327;42.622;23.316;2022-12-18T09:07:13;4.47;82.69
65637;DHT22;52327;42.622;23.316;2022-12-18T09:09:39;4.60;82.67
65637;DHT22;52327;42.622;23.316;2022-12-18T09:12:04;4.53;81.24
65637;DHT22;52327;42.622;23.316;2022-12-18T09:14:30;4.26;83.38
65637;DHT22;52327;42.622;23.316;2022-12-18T09:16:55;4.44;83.16
65637;DHT22;52327;42.622;23.316;2022-12-18T09:19:21;4.61;81.51
65637;DHT22;52327;42.622;23.316;2022-12-18T09:21:46;4.54;82.16
65637;DHT22;52327;42.622;23.316;2022-12-18T09:24:12;4.43;83.46
65637;DHT22;52327;42.622;23.316;2022-12-18T09:26:39;4.30;83.56
65637;DHT22;52327;42.622;23.316;2022-12-18T09:29:04;4.33;83.39
65637;DHT22;52327;42.622;23.316;2022-12-18T09:31:32;4.24;82.87
65637;DHT22;52327;42.622;23.316;2022-12-18T09:33:58;4.29;85.51
65637;DHT22;52327;42.622;23.316;2022-12-18T09:36:24;4.36;85.73
65637;DHT22;52327;42.622;23.316;2022-12-18T09:38:50;4.60;82.11
65637;DHT22;52327;42.622;23.316;2022-12-18T09:44:31;4.50;83.18
65637;DHT22;52327;42.622;23.316;2022-12-18T09:49:30;4.74;81.37
65637;DHT22;52327;42.622;23.316;2022-12-18T09:52:05;4.79;83.44
65637;DHT22;52327;42.622;23.316;2022-12-18T09:54:38;4.72;81.49
65637;DHT22;52327;42.622;23.316;2022-12-18T09:57:04;4.82;81.94
65637;DHT22;52327;42.622;23.316;2022-12-18T09:59:35;4.78;83.61
65637;DHT22;52327;42.622;23.316;2022-12-18T10:02:17;5.09;79.65
65637;DHT22;52327;42.622;23.316;2022-12-18T10:04:48;5.35;80.87
65637;DHT22;52327;42.622;23.316;2022-12-18T10:07:30;5.44;80.38
65637;DHT22;52327;42.622;23.316;2022-12-18T10:10:06;5.47;80.01
65637;DHT22;52327;42.622;23.316;2022-12-18T10:16:10;5.36;76.95
65637;DHT22;52327;42.622;23.316;2022-12-18T10:19:12;5.02;79.94
65637;DHT22;52327;42.622;23.316;2022-12-18T10:27:25;4.75;80.88
65637;DHT22;52327;42.622;23.316;2022-12-18T10:29:51;4.72;81.07
65637;DHT22;52327;42.622;23.316;2022-12-18T10:32:24;4.67;80.85
65637;DHT22;52327;42.622;23.316;2022-12-18T10:34:55;4.57;81.15
65637;DHT22;52327;42.622;23.316;2022-12-18T10:37:26;4.67;81.67
65637;DHT22;52327;42.622;23.316;2022-12-18T10:40:16;4.68;80.73
65637;DHT22;52327;42.622;23.316;2022-12-18T10:42:41;4.81;79.30
65637;DHT22;52327;42.622;23.316;2022-12-18T10:45:14;4.71;76.43
65637;DHT22;52327;42.622;23.316;2022-12-18T10:47:45;4.93;80.55
65637;DHT22;52327;42.622;23.316;2022-12-18T10:50:32;4.40;80.88
65637;DHT22;52327;42.622;23.316;2022-12-18T10:53:03;4.24;81.50
65637;DHT22;52327;42.622;23.316;2022-12-18T10:55:34;4.11;81.10
65637;DHT22;52327;42.622;23.316;2022-12-18T10:58:25;4.26;80.23
65637;DHT22;52327;42.622;23.316;2022-12-18T11:01:15;4.07;81.20
65637;DHT22;52327;42.622;23.316;2022-12-18T11:03:42;4.14;79.76
65637;DHT22;52327;42.622;23.316;2022-12-18T11:06:20;4.05;81.19
65637;DHT22;52327;42.622;23.316;2022-12-18T11:09:19;4.11;81.64
65637;DHT22;52327;42.622;23.316;2022-12-18T11:11:53;3.93;80.29
65637;DHT22;52327;42.622;23.316;2022-12-18T11:14:25;4.03;79.47
65637;DHT22;52327;42.622;23.316;2022-12-18T11:16:52;3.99;78.75
65637;DHT22;52327;42.622;23.316;2022-12-18T11:21:52;3.99;78.57
65637;DHT22;52327;42.622;23.316;2022-12-18T11:24:34;3.85;77.39
65637;DHT22;52327;42.622;23.316;2022-12-18T11:27:02;3.81;77.16
65637;DHT22;52327;42.622;23.316;2022-12-18T11:29:32;3.66;76.52
65637;DHT22;52327;42.622;23.316;2022-12-18T11:34:48;3.90;75.25
65637;DHT22;52327;42.622;23.316;2022-12-18T11:37:15;3.75;75.23
65637;DHT22;52327;42.622;23.316;2022-12-18T11:40:00;3.86;75.97
65637;DHT22;52327;42.622;23.316;2022-12-18T11:50:30;3.44;74.49
65637;DHT22;52327;42.622;23.316;2022-12-18T11:52:57;3.34;74.73
65637;DHT22;52327;42.622;23.316;2022-12-18T12:01:10;3.59;74.90
65637;DHT22;52327;42.622;23.316;2022-12-18T12:31:05;4.05;75.43
65637;DHT22;52327;42.622;23.316;2022-12-18T12:36:29;4.58;76.96
65637;DHT22;52327;42.622;23.316;2022-12-18T12:39:01;4.61;77.73
65637;DHT22;52327;42.622;23.316;2022-12-18T12:41:33;4.62;75.45
65637;DHT22;52327;42.622;23.316;2022-12-18T12:44:29;4.64;72.86
65637;DHT22;52327;42.622;23.316;2022-12-18T12:46:59;4.54;76.69
65637;DHT22;52327;42.622;23.316;2022-12-18T12:49:27;4.11;76.85
65637;DHT22;52327;42.622;23.316;2022-12-18T12:52:26;4.00;77.47
65637;DHT22;52327;42.622;23.316;2022-12-18T12:54:47;3.86;76.11
65637;DHT22;52327;42.622;23.316;2022-12-18T12:57:21;3.90;77.13
65637;DHT22;52327;42.622;23.316;2022-12-18T13:00:00;3.92;79.26
65637;DHT22;52327;42.622;23.316;2022-12-18T13:05:48;3.82;75.66
65637;DHT22;52327;42.622;23.316;2022-12-18T13:08:27;3.96;77.56
65637;DHT22;52327;42.622;23.316;2022-12-18T13:10:54;3.95;77.43
65637;DHT22;52327;42.622;23.316;2022-12-18T13:13:49;4.10;77.63
65637;DHT22;52327;42.622;23.316;2022-12-18T13:16:19;4.27;75.46
65637;DHT22;52327;42.622;23.316;2022-12-18T13:18:55;4.14;77.63
65637;DHT22;52327;42.622;23.316;2022-12-18T13:21:27;4.20;78.81
65637;DHT22;52327;42.622;23.316;2022-12-18T13:23:54;3.93;78.73
65637;DHT22;52327;42.622;23.316;2022-12-18T13:28:56;4.24;80.13
65637;DHT22;52327;42.622;23.316;2022-12-18T13:34:29;4.11;79.47
65637;DHT22;52327;42.622;23.316;2022-12-18T13:37:33;4.16;77.74
65637;DHT22;52327;42.622;23.316;2022-12-18T13:39:42;4.23;77.41
65637;DHT22;52327;42.622;23.316;2022-12-18T13:44:38;3.87;80.35
65637;DHT22;52327;42.622;23.316;2022-12-18T13:47:25;4.05;80.65
65637;DHT22;52327;42.622;23.316;2022-12-18T13:49:53;4.21;77.83
65637;DHT22;52327;42.622;23.316;2022-12-18T13:52:28;4.38;74.94
65637;DHT22;52327;42.622;23.316;2022-12-18T13:54:56;4.26;79.90
65637;DHT22;52327;42.622;23.316;2022-12-18T13:57:38;3.96;78.95
65637;DHT22;52327;42.622;23.316;2022-12-18T14:02:47;4.03;79.69
65637;DHT22;52327;42.622;23.316;2022-12-18T14:05:32;4.26;78.18
65637;DHT22;52327;42.622;23.316;2022-12-18T14:08:08;4.21;79.44
65637;DHT22;52327;42.622;23.316;2022-12-18T14:10:35;4.07;78.63
65637;DHT22;52327;42.622;23.316;2022-12-18T14:13:06;4.17;80.29
65637;DHT22;52327;42.622;23.316;2022-12-18T14:15:43;3.93;79.96
65637;DHT22;52327;42.622;23.316;2022-12-18T14:20:42;4.07;78.98
65637;DHT22;52327;42.622;23.316;2022-12-18T14:25:58;4.02;79.44
65637;DHT22;52327;42.622;23.316;2022-12-18T14:28:24;3.99;80.76
65637;DHT22;52327;42.622;23.316;2022-12-18T14:30:51;4.17;81.37
65637;DHT22;52327;42.622;23.316;2022-12-18T14:33:19;4.23;80.82
65637;DHT22;52327;42.622;23.316;2022-12-18T14:38:39;3.76;81.07
65637;DHT22;52327;42.622;23.316;2022-12-18T14:41:15;3.64;78.86
65637;DHT22;52327;42.622;23.316;2022-12-18T14:43:42;3.85;80.73
65637;DHT22;52327;42.622;23.316;2022-12-18T14:46:36;3.93;82.59
65637;DHT22;52327;42.622;23.316;2022-12-18T14:49:25;3.99;79.09
65637;DHT22;52327;42.622;23.316;2022-12-18T14:52:03;4.13;79.01
65637;DHT22;52327;42.622;23.316;2022-12-18T14:54:30;4.33;77.98
65637;DHT22;52327;42.622;23.316;2022-12-18T14:57:06;4.06;79.55
65637;DHT22;52327;42.622;23.316;2022-12-18T14:59:40;4.10;79.82
65637;DHT22;52327;42.622;23.316;2022-12-18T15:02:27;4.03;78.49
65637;DHT22;52327;42.622;23.316;2022-12-18T15:05:26;4.02;79.41
65637;DHT22;52327;42.622;23.316;2022-12-18T15:07:52;4.05;77.67
65637;DHT22;52327;42.622;23.316;2022-12-18T15:10:20;4.05;77.54
65637;DHT22;52327;42.622;23.316;2022-12-18T15:12:48;3.97;79.44
65637;DHT22;52327;42.622;23.316;2022-12-18T15:20:24;4.11;79.26
65637;DHT22;52327;42.622;23.316;2022-12-18T15:22:50;3.99;79.91
65637;DHT22;52327;42.622;23.316;2022-12-18T15:25:32;3.83;78.60
65637;DHT22;52327;42.622;23.316;2022-12-18T15:27:59;4.03;79.77
65637;DHT22;52327;42.622;23.316;2022-12-18T15:30:25;3.65;78.74
65637;DHT22;52327;42.622;23.316;2022-12-18T15:32:51;3.55;79.26
65637;DHT22;52327;42.622;23.316;2022-12-18T15:37:43;3.95;81.09
65637;DHT22;52327;42.622;23.316;2022-12-18T15:40:18;3.95;76.67
65637;DHT22;52327;42.622;23.316;2022-12-18T15:42:44;3.79;77.82
65637;DHT22;52327;42.622;23.316;2022-12-18T15:45:29;3.92;78.06
65637;DHT22;52327;42.622;23.316;2022-12-18T15:47:54;3.99;75.10
65637;DHT22;52327;42.622;23.316;2022-12-18T15:50:20;3.92;75.72
65637;DHT22;52327;42.622;23.316;2022-12-18T15:52:47;3.71;74.96
65637;DHT22;52327;42.622;23.316;2022-12-18T15:55:20;3.61;76.43
65637;DHT22;52327;42.622;23.316;2022-12-18T15:58:06;3.50;78.93
65637;DHT22;52327;42.622;23.316;2022-12-18T16:00:32;3.31;77.69
65637;DHT22;52327;42.622;23.316;2022-12-18T16:45:15;2.26;76.36
65637;DHT22;52327;42.622;23.316;2022-12-18T16:47:41;2.59;78.81
65637;DHT22;52327;42.622;23.316;2022-12-18T16:50:07;2.80;77.45
65637;DHT22;52327;42.622;23.316;2022-12-18T16:52:33;2.84;75.37
65637;DHT22;52327;42.622;23.316;2022-12-18T16:54:59;2.83;75.56
65637;DHT22;52327;42.622;23.316;2022-12-18T16:57:24;2.91;75.22
65637;DHT22;52327;42.622;23.316;2022-12-18T16:59:50;3.00;76.16
65637;DHT22;52327;42.622;23.316;2022-12-18T17:02:24;3.11;76.76
65637;DHT22;52327;42.622;23.316;2022-12-18T17:04:52;2.97;74.33
65637;DHT22;52327;42.622;23.316;2022-12-18T17:07:18;2.83;73.20
65637;DHT22;52327;42.622;23.316;2022-12-18T17:09:43;2.97;75.25
65637;DHT22;52327;42.622;23.316;2022-12-18T17:12:09;2.76;74.32
65637;DHT22;52327;42.622;23.316;2022-12-18T17:14:35;2.76;73.86
65637;DHT22;52327;42.622;23.316;2022-12-18T17:17:00;2.79;74.60
65637;DHT22;52327;42.622;23.316;2022-12-18T17:19:27;2.70;72.85
65637;DHT22;52327;42.622;23.316;2022-12-18T17:21:53;2.42;71.87
65637;DHT22;52327;42.622;23.316;2022-12-18T17:24:19;2.28;72.59
65637;DHT22;52327;42.622;23.316;2022-12-18T17:26:45;2.22;73.59
65637;DHT22;52327;42.622;23.316;2022-12-18T17:29:16;2.28;73.46
65637;DHT22;52327;42.622;23.316;2022-12-18T17:31:42;2.32;76.42
65637;DHT22;52327;42.622;23.316;2022-12-18T17:34:09;2.32;73.43
65637;DHT22;52327;42.622;23.316;2022-12-18T17:36:35;2.39;71.04
65637;DHT22;52327;42.622;23.316;2022-12-18T17:39:01;2.32;73.15
65637;DHT22;52327;42.622;23.316;2022-12-18T17:41:28;2.32;73.08
65637;DHT22;52327;42.622;23.316;2022-12-18T17:43:56;2.24;72.96
65637;DHT22;52327;42.622;23.316;2022-12-18T17:46:22;2.35;72.69
65637;DHT22;52327;42.622;23.316;2022-12-18T17:48:48;2.36;74.04
65637;DHT22;52327;42.622;23.316;2022-12-18T17:51:15;2.57;74.12
65637;DHT22;52327;42.622;23.316;2022-12-18T17:53:41;2.46;75.98
65637;DHT22;52327;42.622;23.316;2022-12-18T17:56:12;2.70;75.96
65637;DHT22;52327;42.622;23.316;2022-12-18T17:58:38;2.66;73.80
65637;DHT22;52327;42.622;23.316;2022-12-18T18:01:04;2.53;72.79
65637;DHT22;52327;42.622;23.316;2022-12-18T18:03:30;2.49;72.70
65637;DHT22;52327;42.622;23.316;2022-12-18T18:05:58;2.56;75.52
65637;DHT22;52327;42.622;23.316;2022-12-18T18:08:24;2.60;74.12
65637;DHT22;52327;42.622;23.316;2022-12-18T18:10:50;2.56;73.36
65637;DHT22;52327;42.622;23.316;2022-12-18T18:13:24;2.43;72.06
65637;DHT22;52327;42.622;23.316;2022-12-18T18:16:10;2.59;74.53
65637;DHT22;52327;42.622;23.316;2022-12-18T18:18:36;2.64;69.80
65637;DHT22;52327;42.622;23.316;2022-12-18T18:21:06;2.72;71.07
65637;DHT22;52327;42.622;23.316;2022-12-18T18:23:32;2.77;71.55
65637;DHT22;52327;42.622;23.316;2022-12-18T18:26:04;2.89;73.22